sensor_id;sensor_type;location;lat;lon;timestamp;P1;durP1;ratioP1;P2;durP2;ratioP2
17614;SDS011;8926;49.720;6.576;2023-09-08T00:01:32;3.47;;;3.27;;
17614;SDS011;8926;49.720;6.576;2023-09-08T00:03:57;3.53;;;3.23;;
17614;SDS011;8926;49.720;6.576;2023-09-08T00:06:23;3.30;;;3.10;;
17614;SDS011;8926;49.720;6.576;2023-09-08T00:08:48;3.40;;;3.20;;
17614;SDS011;8926;49.720;6.576;2023-09-08T00:11:13;3.50;;;3.20;;
17614;SDS011;8926;49.720;6.576;2023-09-08T00:13:38;3.40;;;3.20;;
17614;SDS011;8926;49.720;6.576;2023-09-08T00:16:04;3.10;;;2.90;;
17614;SDS011;8926;49.720;6.576;2023-09-08T00:18:30;3.00;;;2.80;;
17614;SDS011;8926;49.720;6.576;2023-09-08T00:20:55;3.10;;;3.00;;
17614;SDS011;8926;49.720;6.576;2023-09-08T00:23:21;3.70;;;3.40;;
17614;SDS011;8926;49.720;6.576;2023-09-08T00:25:46;3.40;;;3.20;;
17614;SDS011;8926;49.720;6.576;2023-09-08T00:28:11;3.47;;;3.27;;
17614;SDS011;8926;49.720;6.576;2023-09-08T00:30:36;2.90;;;2.70;;
17614;SDS011;8926;49.720;6.576;2023-09-08T00:33:02;3.20;;;3.10;;
17614;SDS011;8926;49.720;6.576;2023-09-08T00:35:27;3.43;;;3.20;;
17614;SDS011;8926;49.720;6.576;2023-09-08T00:37:52;3.30;;;3.10;;
17614;SDS011;8926;49.720;6.576;2023-09-08T00:40:18;3.20;;;3.00;;
17614;SDS011;8926;49.720;6.576;2023-09-08T00:42:43;3.20;;;3.00;;
17614;SDS011;8926;49.720;6.576;2023-09-08T00:45:08;2.77;;;2.67;;
17614;SDS011;8926;49.720;6.576;2023-09-08T00:47:34;3.43;;;3.23;;
17614;SDS011;8926;49.720;6.576;2023-09-08T00:50:01;3.33;;;3.13;;
17614;SDS011;8926;49.720;6.576;2023-09-08T00:52:28;3.30;;;3.10;;
17614;SDS011;8926;49.720;6.576;2023-09-08T00:54:57;2.83;;;2.73;;
17614;SDS011;8926;49.720;6.576;2023-09-08T00:57:23;3.33;;;3.13;;
17614;SDS011;8926;49.720;6.576;2023-09-08T00:59:48;3.70;;;3.50;;
17614;SDS011;8926;49.720;6.576;2023-09-08T01:02:14;3.80;;;3.60;;
17614;SDS011;8926;49.720;6.576;2023-09-08T01:04:39;3.27;;;3.07;;
17614;SDS011;8926;49.720;6.576;2023-09-08T01:07:06;3.33;;;3.13;;
17614;SDS011;8926;49.720;6.576;2023-09-08T01:09:32;3.00;;;2.90;;
17614;SDS011;8926;49.720;6.576;2023-09-08T01:11:58;3.23;;;3.10;;
17614;SDS011;8926;49.720;6.576;2023-09-08T01:14:27;3.80;;;3.60;;
17614;SDS011;8926;49.720;6.576;2023-09-08T01:16:52;3.13;;;2.93;;
17614;SDS011;8926;49.720;6.576;2023-09-08T01:19:17;3.30;;;3.10;;
17614;SDS011;8926;49.720;6.576;2023-09-08T01:28:03;4.13;;;3.73;;
17614;SDS011;8926;49.720;6.576;2023-09-08T01:30:30;3.87;;;3.57;;
17614;SDS011;8926;49.720;6.576;2023-09-08T01:32:57;3.10;;;2.90;;
17614;SDS011;8926;49.720;6.576;2023-09-08T01:35:23;3.37;;;3.17;;
17614;SDS011;8926;49.720;6.576;2023-09-08T01:37:49;3.40;;;3.20;;
17614;SDS011;8926;49.720;6.576;2023-09-08T01:40:15;3.30;;;3.10;;
17614;SDS011;8926;49.720;6.576;2023-09-08T01:42:41;3.47;;;3.27;;
17614;SDS011;8926;49.720;6.576;2023-09-08T01:45:07;3.60;;;3.40;;
17614;SDS011;8926;49.720;6.576;2023-09-08T01:47:33;3.07;;;2.93;;
17614;SDS011;8926;49.720;6.576;2023-09-08T01:49:59;3.40;;;3.20;;
17614;SDS011;8926;49.720;6.576;2023-09-08T01:52:24;3.37;;;3.17;;
17614;SDS011;8926;49.720;6.576;2023-09-08T01:54:50;3.10;;;3.00;;
17614;SDS011;8926;49.720;6.576;2023-09-08T01:57:15;3.60;;;3.40;;
17614;SDS011;8926;49.720;6.576;2023-09-08T01:59:41;3.90;;;3.70;;
17614;SDS011;8926;49.720;6.576;2023-09-08T02:02:06;3.47;;;3.27;;
17614;SDS011;8926;49.720;6.576;2023-09-08T02:04:31;3.20;;;3.00;;
17614;SDS011;8926;49.720;6.576;2023-09-08T02:06:57;3.13;;;2.97;;
17614;SDS011;8926;49.720;6.576;2023-09-08T02:09:29;3.60;;;3.40;;
17614;SDS011;8926;49.720;6.576;2023-09-08T02:12:04;3.20;;;3.00;;
17614;SDS011;8926;49.720;6.576;2023-09-08T02:14:30;3.40;;;3.20;;
17614;SDS011;8926;49.720;6.576;2023-09-08T02:16:55;3.70;;;3.50;;
17614;SDS011;8926;49.720;6.576;2023-09-08T02:19:21;3.10;;;3.00;;
17614;SDS011;8926;49.720;6.576;2023-09-08T02:21:47;3.70;;;3.50;;
17614;SDS011;8926;49.720;6.576;2023-09-08T02:24:12;3.60;;;3.40;;
17614;SDS011;8926;49.720;6.576;2023-09-08T02:26:38;3.83;;;3.63;;
17614;SDS011;8926;49.720;6.576;2023-09-08T02:29:04;3.40;;;3.20;;
17614;SDS011;8926;49.720;6.576;2023-09-08T02:31:29;3.57;;;3.37;;
17614;SDS011;8926;49.720;6.576;2023-09-08T02:33:55;3.50;;;3.30;;
17614;SDS011;8926;49.720;6.576;2023-09-08T02:36:20;3.37;;;3.17;;
17614;SDS011;8926;49.720;6.576;2023-09-08T02:38:50;3.43;;;3.27;;
17614;SDS011;8926;49.720;6.576;2023-09-08T02:41:16;3.20;;;2.90;;
17614;SDS011;8926;49.720;6.576;2023-09-08T02:43:42;3.47;;;3.27;;
17614;SDS011;8926;49.720;6.576;2023-09-08T02:46:07;3.37;;;3.17;;
17614;SDS011;8926;49.720;6.576;2023-09-08T02:48:34;3.43;;;3.23;;
17614;SDS011;8926;49.720;6.576;2023-09-08T02:50:59;3.47;;;3.27;;
17614;SDS011;8926;49.720;6.576;2023-09-08T02:53:25;3.43;;;3.23;;
17614;SDS011;8926;49.720;6.576;2023-09-08T02:55:53;3.63;;;3.43;;
17614;SDS011;8926;49.720;6.576;2023-09-08T02:58:19;3.70;;;3.40;;
17614;SDS011;8926;49.720;6.576;2023-09-08T03:00:44;3.60;;;3.40;;
17614;SDS011;8926;49.720;6.576;2023-09-08T03:03:10;3.33;;;3.13;;
17614;SDS011;8926;49.720;6.576;2023-09-08T03:05:35;3.60;;;3.40;;
17614;SDS011;8926;49.720;6.576;2023-09-08T03:08:01;3.80;;;3.60;;
17614;SDS011;8926;49.720;6.576;2023-09-08T03:10:27;3.83;;;3.53;;
17614;SDS011;8926;49.720;6.576;2023-09-08T03:12:53;3.50;;;3.30;;
17614;SDS011;8926;49.720;6.576;2023-09-08T03:15:19;3.50;;;3.30;;
17614;SDS011;8926;49.720;6.576;2023-09-08T03:17:44;3.17;;;3.00;;
17614;SDS011;8926;49.720;6.576;2023-09-08T03:20:10;3.73;;;3.53;;
17614;SDS011;8926;49.720;6.576;2023-09-08T03:22:35;3.70;;;3.50;;
17614;SDS011;8926;49.720;6.576;2023-09-08T03:25:01;4.20;;;3.90;;
17614;SDS011;8926;49.720;6.576;2023-09-08T03:27:26;3.77;;;3.57;;
17614;SDS011;8926;49.720;6.576;2023-09-08T03:29:51;3.23;;;3.03;;
17614;SDS011;8926;49.720;6.576;2023-09-08T03:32:16;3.57;;;3.37;;
17614;SDS011;8926;49.720;6.576;2023-09-08T03:34:42;3.40;;;3.20;;
17614;SDS011;8926;49.720;6.576;2023-09-08T03:37:07;3.80;;;3.60;;
17614;SDS011;8926;49.720;6.576;2023-09-08T03:39:32;4.00;;;3.80;;
17614;SDS011;8926;49.720;6.576;2023-09-08T03:41:58;4.17;;;3.87;;
17614;SDS011;8926;49.720;6.576;2023-09-08T03:44:23;3.50;;;3.30;;
17614;SDS011;8926;49.720;6.576;2023-09-08T03:46:48;3.53;;;3.33;;
17614;SDS011;8926;49.720;6.576;2023-09-08T03:49:14;4.00;;;3.80;;
17614;SDS011;8926;49.720;6.576;2023-09-08T03:51:39;3.63;;;3.43;;
17614;SDS011;8926;49.720;6.576;2023-09-08T03:54:04;3.90;;;3.70;;
17614;SDS011;8926;49.720;6.576;2023-09-08T03:56:30;3.87;;;3.67;;
17614;SDS011;8926;49.720;6.576;2023-09-08T03:58:56;3.70;;;3.50;;
17614;SDS011;8926;49.720;6.576;2023-09-08T04:01:21;3.17;;;3.07;;
17614;SDS011;8926;49.720;6.576;2023-09-08T04:03:46;3.50;;;3.30;;
17614;SDS011;8926;49.720;6.576;2023-09-08T04:06:12;3.97;;;3.67;;
17614;SDS011;8926;49.720;6.576;2023-09-08T04:08:37;3.00;;;2.90;;
17614;SDS011;8926;49.720;6.576;2023-09-08T04:11:02;3.63;;;3.43;;
17614;SDS011;8926;49.720;6.576;2023-09-08T04:13:27;3.73;;;3.53;;
17614;SDS011;8926;49.720;6.576;2023-09-08T04:15:53;3.60;;;3.37;;
17614;SDS011;8926;49.720;6.576;2023-09-08T04:18:18;3.63;;;3.43;;
17614;SDS011;8926;49.720;6.576;2023-09-08T04:20:43;3.60;;;3.40;;
17614;SDS011;8926;49.720;6.576;2023-09-08T04:23:08;3.90;;;3.70;;
17614;SDS011;8926;49.720;6.576;2023-09-08T04:25:34;3.80;;;3.50;;
17614;SDS011;8926;49.720;6.576;2023-09-08T04:28:00;3.27;;;3.10;;
17614;SDS011;8926;49.720;6.576;2023-09-08T04:30:25;3.93;;;3.73;;
17614;SDS011;8926;49.720;6.576;2023-09-08T04:32:51;3.80;;;3.60;;
17614;SDS011;8926;49.720;6.576;2023-09-08T04:35:16;3.80;;;3.60;;
17614;SDS011;8926;49.720;6.576;2023-09-08T04:37:41;3.70;;;3.50;;
17614;SDS011;8926;49.720;6.576;2023-09-08T04:40:06;3.30;;;3.10;;
17614;SDS011;8926;49.720;6.576;2023-09-08T04:42:32;3.30;;;3.10;;
17614;SDS011;8926;49.720;6.576;2023-09-08T04:44:58;3.63;;;3.43;;
17614;SDS011;8926;49.720;6.576;2023-09-08T04:47:23;3.47;;;3.27;;
17614;SDS011;8926;49.720;6.576;2023-09-08T04:49:50;4.00;;;3.80;;
17614;SDS011;8926;49.720;6.576;2023-09-08T04:52:16;3.70;;;3.50;;
17614;SDS011;8926;49.720;6.576;2023-09-08T04:54:41;4.10;;;3.90;;
17614;SDS011;8926;49.720;6.576;2023-09-08T04:57:06;3.97;;;3.77;;
17614;SDS011;8926;49.720;6.576;2023-09-08T04:59:32;3.80;;;3.60;;
17614;SDS011;8926;49.720;6.576;2023-09-08T05:01:57;4.20;;;4.00;;
17614;SDS011;8926;49.720;6.576;2023-09-08T05:04:23;4.17;;;3.90;;
17614;SDS011;8926;49.720;6.576;2023-09-08T05:06:48;4.20;;;3.90;;
17614;SDS011;8926;49.720;6.576;2023-09-08T05:09:14;3.70;;;3.50;;
17614;SDS011;8926;49.720;6.576;2023-09-08T05:11:39;4.17;;;3.87;;
17614;SDS011;8926;49.720;6.576;2023-09-08T05:14:05;3.60;;;3.40;;
17614;SDS011;8926;49.720;6.576;2023-09-08T05:16:30;3.87;;;3.67;;
17614;SDS011;8926;49.720;6.576;2023-09-08T05:19:04;3.60;;;3.40;;
17614;SDS011;8926;49.720;6.576;2023-09-08T05:21:30;3.70;;;3.50;;
17614;SDS011;8926;49.720;6.576;2023-09-08T05:23:56;3.30;;;3.10;;
17614;SDS011;8926;49.720;6.576;2023-09-08T05:26:22;3.47;;;3.27;;
17614;SDS011;8926;49.720;6.576;2023-09-08T05:28:47;3.67;;;3.47;;
17614;SDS011;8926;49.720;6.576;2023-09-08T05:31:12;3.90;;;3.67;;
17614;SDS011;8926;49.720;6.576;2023-09-08T05:33:38;3.47;;;3.27;;
17614;SDS011;8926;49.720;6.576;2023-09-08T05:36:03;3.60;;;3.40;;
17614;SDS011;8926;49.720;6.576;2023-09-08T05:38:28;3.57;;;3.37;;
17614;SDS011;8926;49.720;6.576;2023-09-08T05:40:54;3.50;;;3.30;;
17614;SDS011;8926;49.720;6.576;2023-09-08T05:43:19;3.40;;;3.20;;
17614;SDS011;8926;49.720;6.576;2023-09-08T05:45:44;4.07;;;3.87;;
17614;SDS011;8926;49.720;6.576;2023-09-08T05:48:10;3.77;;;3.57;;
17614;SDS011;8926;49.720;6.576;2023-09-08T05:50:36;3.90;;;3.60;;
17614;SDS011;8926;49.720;6.576;2023-09-08T05:53:01;3.33;;;3.20;;
17614;SDS011;8926;49.720;6.576;2023-09-08T05:55:26;3.50;;;3.30;;
17614;SDS011;8926;49.720;6.576;2023-09-08T05:57:52;3.73;;;3.50;;
17614;SDS011;8926;49.720;6.576;2023-09-08T06:00:17;3.53;;;3.37;;
17614;SDS011;8926;49.720;6.576;2023-09-08T06:02:42;3.20;;;3.00;;
17614;SDS011;8926;49.720;6.576;2023-09-08T06:05:08;3.40;;;3.20;;
17614;SDS011;8926;49.720;6.576;2023-09-08T06:07:33;2.77;;;2.67;;
17614;SDS011;8926;49.720;6.576;2023-09-08T06:09:58;2.90;;;2.80;;
17614;SDS011;8926;49.720;6.576;2023-09-08T06:12:24;3.10;;;2.90;;
17614;SDS011;8926;49.720;6.576;2023-09-08T06:14:49;3.77;;;2.70;;
17614;SDS011;8926;49.720;6.576;2023-09-08T06:17:14;2.90;;;2.80;;
17614;SDS011;8926;49.720;6.576;2023-09-08T06:19:39;3.13;;;2.93;;
17614;SDS011;8926;49.720;6.576;2023-09-08T06:22:05;3.10;;;3.00;;
17614;SDS011;8926;49.720;6.576;2023-09-08T06:24:30;3.10;;;2.90;;
17614;SDS011;8926;49.720;6.576;2023-09-08T06:26:55;3.00;;;2.90;;
17614;SDS011;8926;49.720;6.576;2023-09-08T06:29:21;4.83;;;4.50;;
17614;SDS011;8926;49.720;6.576;2023-09-08T06:31:46;4.30;;;4.10;;
17614;SDS011;8926;49.720;6.576;2023-09-08T06:34:14;4.50;;;4.20;;
17614;SDS011;8926;49.720;6.576;2023-09-08T06:36:39;3.77;;;3.57;;
17614;SDS011;8926;49.720;6.576;2023-09-08T06:39:05;4.27;;;3.97;;
17614;SDS011;8926;49.720;6.576;2023-09-08T06:41:30;4.73;;;4.37;;
17614;SDS011;8926;49.720;6.576;2023-09-08T06:43:55;5.40;;;5.00;;
17614;SDS011;8926;49.720;6.576;2023-09-08T06:46:21;4.60;;;4.30;;
17614;SDS011;8926;49.720;6.576;2023-09-08T06:48:46;4.17;;;3.87;;
17614;SDS011;8926;49.720;6.576;2023-09-08T06:51:11;4.10;;;3.90;;
17614;SDS011;8926;49.720;6.576;2023-09-08T06:53:37;4.27;;;3.97;;
17614;SDS011;8926;49.720;6.576;2023-09-08T06:56:02;5.13;;;4.73;;
17614;SDS011;8926;49.720;6.576;2023-09-08T06:58:28;4.47;;;4.27;;
17614;SDS011;8926;49.720;6.576;2023-09-08T07:00:53;4.40;;;4.10;;
17614;SDS011;8926;49.720;6.576;2023-09-08T07:03:19;5.47;;;5.10;;
17614;SDS011;8926;49.720;6.576;2023-09-08T07:05:46;5.23;;;4.73;;
17614;SDS011;8926;49.720;6.576;2023-09-08T07:08:11;4.40;;;4.20;;
17614;SDS011;8926;49.720;6.576;2023-09-08T07:10:37;5.37;;;5.00;;
17614;SDS011;8926;49.720;6.576;2023-09-08T07:13:03;5.20;;;4.80;;
17614;SDS011;8926;49.720;6.576;2023-09-08T07:15:28;5.00;;;4.70;;
17614;SDS011;8926;49.720;6.576;2023-09-08T07:17:53;4.80;;;4.50;;
17614;SDS011;8926;49.720;6.576;2023-09-08T07:20:19;4.63;;;4.23;;
17614;SDS011;8926;49.720;6.576;2023-09-08T07:22:44;4.97;;;4.57;;
17614;SDS011;8926;49.720;6.576;2023-09-08T07:25:09;4.13;;;3.90;;
17614;SDS011;8926;49.720;6.576;2023-09-08T07:27:34;5.33;;;4.90;;
17614;SDS011;8926;49.720;6.576;2023-09-08T07:30:00;8.17;;;5.23;;
17614;SDS011;8926;49.720;6.576;2023-09-08T07:32:25;4.70;;;4.40;;
17614;SDS011;8926;49.720;6.576;2023-09-08T07:34:50;5.20;;;4.80;;
17614;SDS011;8926;49.720;6.576;2023-09-08T07:37:20;5.70;;;5.10;;
17614;SDS011;8926;49.720;6.576;2023-09-08T07:39:47;4.67;;;4.37;;
17614;SDS011;8926;49.720;6.576;2023-09-08T07:42:12;5.10;;;4.63;;
17614;SDS011;8926;49.720;6.576;2023-09-08T07:44:38;5.47;;;4.97;;
17614;SDS011;8926;49.720;6.576;2023-09-08T07:47:03;4.70;;;4.30;;
17614;SDS011;8926;49.720;6.576;2023-09-08T07:49:28;4.90;;;4.50;;
17614;SDS011;8926;49.720;6.576;2023-09-08T07:51:54;5.10;;;4.70;;
17614;SDS011;8926;49.720;6.576;2023-09-08T07:54:19;5.10;;;4.70;;
17614;SDS011;8926;49.720;6.576;2023-09-08T07:56:44;5.27;;;4.70;;
17614;SDS011;8926;49.720;6.576;2023-09-08T07:59:09;5.77;;;4.97;;
17614;SDS011;8926;49.720;6.576;2023-09-08T08:01:35;4.80;;;4.40;;
17614;SDS011;8926;49.720;6.576;2023-09-08T08:04:00;4.37;;;4.07;;
17614;SDS011;8926;49.720;6.576;2023-09-08T08:06:28;5.93;;;4.50;;
17614;SDS011;8926;49.720;6.576;2023-09-08T08:08:53;4.90;;;4.50;;
17614;SDS011;8926;49.720;6.576;2023-09-08T08:11:18;5.50;;;4.20;;
17614;SDS011;8926;49.720;6.576;2023-09-08T08:13:45;4.57;;;4.20;;
17614;SDS011;8926;49.720;6.576;2023-09-08T08:16:10;4.17;;;3.97;;
17614;SDS011;8926;49.720;6.576;2023-09-08T08:18:36;4.37;;;4.00;;
17614;SDS011;8926;49.720;6.576;2023-09-08T08:21:01;4.53;;;4.00;;
17614;SDS011;8926;49.720;6.576;2023-09-08T08:23:28;3.60;;;3.30;;
17614;SDS011;8926;49.720;6.576;2023-09-08T08:25:53;6.60;;;4.77;;
17614;SDS011;8926;49.720;6.576;2023-09-08T08:28:19;3.97;;;3.73;;
17614;SDS011;8926;49.720;6.576;2023-09-08T08:30:44;4.27;;;3.90;;
17614;SDS011;8926;49.720;6.576;2023-09-08T08:33:12;4.00;;;3.80;;
17614;SDS011;8926;49.720;6.576;2023-09-08T08:35:38;4.57;;;3.67;;
17614;SDS011;8926;49.720;6.576;2023-09-08T08:38:03;4.77;;;4.37;;
17614;SDS011;8926;49.720;6.576;2023-09-08T08:40:29;4.03;;;3.73;;
17614;SDS011;8926;49.720;6.576;2023-09-08T08:42:57;4.87;;;4.43;;
17614;SDS011;8926;49.720;6.576;2023-09-08T08:45:24;4.20;;;3.90;;
17614;SDS011;8926;49.720;6.576;2023-09-08T08:47:51;5.47;;;4.80;;
17614;SDS011;8926;49.720;6.576;2023-09-08T08:50:17;5.17;;;3.87;;
17614;SDS011;8926;49.720;6.576;2023-09-08T08:52:43;4.67;;;4.27;;
17614;SDS011;8926;49.720;6.576;2023-09-08T08:55:09;4.37;;;3.97;;
17614;SDS011;8926;49.720;6.576;2023-09-08T08:57:37;4.23;;;3.93;;
17614;SDS011;8926;49.720;6.576;2023-09-08T09:00:05;4.20;;;3.90;;
17614;SDS011;8926;49.720;6.576;2023-09-08T09:02:37;3.90;;;3.70;;
17614;SDS011;8926;49.720;6.576;2023-09-08T09:05:04;4.30;;;4.00;;
17614;SDS011;8926;49.720;6.576;2023-09-08T09:07:30;4.13;;;3.93;;
17614;SDS011;8926;49.720;6.576;2023-09-08T09:09:57;4.13;;;3.73;;
17614;SDS011;8926;49.720;6.576;2023-09-08T09:12:22;4.07;;;3.87;;
17614;SDS011;8926;49.720;6.576;2023-09-08T09:14:47;4.37;;;4.07;;
17614;SDS011;8926;49.720;6.576;2023-09-08T09:17:16;4.20;;;3.90;;
17614;SDS011;8926;49.720;6.576;2023-09-08T09:19:42;4.10;;;3.80;;
17614;SDS011;8926;49.720;6.576;2023-09-08T09:22:07;4.97;;;3.90;;
17614;SDS011;8926;49.720;6.576;2023-09-08T09:24:39;4.50;;;4.10;;
17614;SDS011;8926;49.720;6.576;2023-09-08T09:27:08;4.03;;;3.73;;
17614;SDS011;8926;49.720;6.576;2023-09-08T09:29:43;4.47;;;4.07;;
17614;SDS011;8926;49.720;6.576;2023-09-08T09:32:12;4.57;;;4.17;;
17614;SDS011;8926;49.720;6.576;2023-09-08T09:34:48;3.60;;;3.40;;
17614;SDS011;8926;49.720;6.576;2023-09-08T09:37:15;3.80;;;3.50;;
17614;SDS011;8926;49.720;6.576;2023-09-08T09:39:40;4.30;;;3.90;;
17614;SDS011;8926;49.720;6.576;2023-09-08T09:42:06;4.30;;;3.80;;
17614;SDS011;8926;49.720;6.576;2023-09-08T09:44:31;3.80;;;3.60;;
17614;SDS011;8926;49.720;6.576;2023-09-08T09:46:56;3.63;;;3.33;;
17614;SDS011;8926;49.720;6.576;2023-09-08T09:49:22;4.60;;;4.30;;
17614;SDS011;8926;49.720;6.576;2023-09-08T09:51:52;3.47;;;3.27;;
17614;SDS011;8926;49.720;6.576;2023-09-08T09:54:18;3.90;;;3.70;;
17614;SDS011;8926;49.720;6.576;2023-09-08T09:56:44;3.77;;;3.47;;
17614;SDS011;8926;49.720;6.576;2023-09-08T09:59:13;3.60;;;3.40;;
17614;SDS011;8926;49.720;6.576;2023-09-08T10:01:42;4.23;;;3.77;;
17614;SDS011;8926;49.720;6.576;2023-09-08T10:04:08;4.10;;;3.90;;
17614;SDS011;8926;49.720;6.576;2023-09-08T10:06:34;4.40;;;4.00;;
17614;SDS011;8926;49.720;6.576;2023-09-08T10:09:02;3.43;;;3.23;;
17614;SDS011;8926;49.720;6.576;2023-09-08T10:11:35;5.30;;;3.70;;
17614;SDS011;8926;49.720;6.576;2023-09-08T10:14:06;3.60;;;3.40;;
17614;SDS011;8926;49.720;6.576;2023-09-08T10:16:36;4.50;;;4.20;;
17614;SDS011;8926;49.720;6.576;2023-09-08T10:19:05;4.87;;;4.50;;
17614;SDS011;8926;49.720;6.576;2023-09-08T10:21:33;3.80;;;3.60;;
17614;SDS011;8926;49.720;6.576;2023-09-08T10:24:05;4.40;;;4.10;;
17614;SDS011;8926;49.720;6.576;2023-09-08T10:26:40;5.30;;;4.87;;
17614;SDS011;8926;49.720;6.576;2023-09-08T10:29:10;3.90;;;3.70;;
17614;SDS011;8926;49.720;6.576;2023-09-08T10:31:36;4.33;;;3.90;;
17614;SDS011;8926;49.720;6.576;2023-09-08T10:34:02;3.93;;;3.60;;
17614;SDS011;8926;49.720;6.576;2023-09-08T10:36:28;4.43;;;3.70;;
17614;SDS011;8926;49.720;6.576;2023-09-08T10:38:54;4.83;;;4.43;;
17614;SDS011;8926;49.720;6.576;2023-09-08T10:43:54;4.97;;;3.90;;
17614;SDS011;8926;49.720;6.576;2023-09-08T10:46:22;4.73;;;4.40;;
17614;SDS011;8926;49.720;6.576;2023-09-08T10:48:48;4.30;;;4.00;;
17614;SDS011;8926;49.720;6.576;2023-09-08T10:51:14;4.30;;;4.00;;
17614;SDS011;8926;49.720;6.576;2023-09-08T10:53:40;3.87;;;3.67;;
17614;SDS011;8926;49.720;6.576;2023-09-08T10:56:05;4.00;;;3.73;;
17614;SDS011;8926;49.720;6.576;2023-09-08T10:58:34;3.37;;;3.17;;
17614;SDS011;8926;49.720;6.576;2023-09-08T11:01:03;4.40;;;4.10;;
17614;SDS011;8926;49.720;6.576;2023-09-08T11:06:07;3.10;;;2.90;;
17614;SDS011;8926;49.720;6.576;2023-09-08T11:08:38;3.97;;;3.67;;
17614;SDS011;8926;49.720;6.576;2023-09-08T11:11:06;4.40;;;4.00;;
17614;SDS011;8926;49.720;6.576;2023-09-08T11:13:32;3.57;;;3.37;;
17614;SDS011;8926;49.720;6.576;2023-09-08T11:15:57;3.87;;;3.57;;
17614;SDS011;8926;49.720;6.576;2023-09-08T11:18:29;3.33;;;3.10;;
17614;SDS011;8926;49.720;6.576;2023-09-08T11:20:56;3.70;;;3.40;;
17614;SDS011;8926;49.720;6.576;2023-09-08T11:23:22;4.00;;;3.67;;
17614;SDS011;8926;49.720;6.576;2023-09-08T11:25:48;3.60;;;3.40;;
17614;SDS011;8926;49.720;6.576;2023-09-08T11:28:15;3.77;;;3.47;;
17614;SDS011;8926;49.720;6.576;2023-09-08T11:30:41;3.50;;;3.30;;
17614;SDS011;8926;49.720;6.576;2023-09-08T11:33:19;4.53;;;4.23;;
17614;SDS011;8926;49.720;6.576;2023-09-08T11:35:52;3.23;;;3.03;;
17614;SDS011;8926;49.720;6.576;2023-09-08T11:38:22;3.67;;;3.37;;
17614;SDS011;8926;49.720;6.576;2023-09-08T11:40:50;2.80;;;2.70;;
17614;SDS011;8926;49.720;6.576;2023-09-08T11:43:15;2.80;;;2.70;;
17614;SDS011;8926;49.720;6.576;2023-09-08T11:45:41;3.20;;;3.10;;
17614;SDS011;8926;49.720;6.576;2023-09-08T11:48:08;2.80;;;2.70;;
17614;SDS011;8926;49.720;6.576;2023-09-08T11:50:33;3.37;;;3.17;;
17614;SDS011;8926;49.720;6.576;2023-09-08T11:52:58;3.73;;;3.43;;
17614;SDS011;8926;49.720;6.576;2023-09-08T11:55:24;4.33;;;3.93;;
17614;SDS011;8926;49.720;6.576;2023-09-08T11:57:52;3.57;;;3.37;;
17614;SDS011;8926;49.720;6.576;2023-09-08T12:00:25;3.13;;;3.03;;
17614;SDS011;8926;49.720;6.576;2023-09-08T12:02:52;3.33;;;3.13;;
17614;SDS011;8926;49.720;6.576;2023-09-08T12:05:21;3.00;;;2.90;;
17614;SDS011;8926;49.720;6.576;2023-09-08T12:07:48;3.07;;;2.87;;
17614;SDS011;8926;49.720;6.576;2023-09-08T12:10:15;3.10;;;2.90;;
17614;SDS011;8926;49.720;6.576;2023-09-08T12:12:44;2.83;;;2.73;;
17614;SDS011;8926;49.720;6.576;2023-09-08T12:18:01;2.43;;;2.33;;
17614;SDS011;8926;49.720;6.576;2023-09-08T12:20:28;2.50;;;2.40;;
17614;SDS011;8926;49.720;6.576;2023-09-08T12:22:53;2.00;;;1.90;;
17614;SDS011;8926;49.720;6.576;2023-09-08T12:25:19;1.87;;;1.77;;
17614;SDS011;8926;49.720;6.576;2023-09-08T12:27:45;1.90;;;1.80;;
17614;SDS011;8926;49.720;6.576;2023-09-08T12:30:17;2.37;;;2.27;;
17614;SDS011;8926;49.720;6.576;2023-09-08T12:32:45;2.30;;;2.20;;
17614;SDS011;8926;49.720;6.576;2023-09-08T12:35:12;2.10;;;2.00;;
17614;SDS011;8926;49.720;6.576;2023-09-08T12:37:38;3.77;;;3.57;;
17614;SDS011;8926;49.720;6.576;2023-09-08T12:40:03;4.17;;;3.87;;
17614;SDS011;8926;49.720;6.576;2023-09-08T12:42:29;3.70;;;3.40;;
17614;SDS011;8926;49.720;6.576;2023-09-08T12:44:55;3.10;;;2.90;;
17614;SDS011;8926;49.720;6.576;2023-09-08T12:47:20;2.57;;;2.40;;
17614;SDS011;8926;49.720;6.576;2023-09-08T12:49:46;3.90;;;3.70;;
17614;SDS011;8926;49.720;6.576;2023-09-08T12:52:11;2.90;;;2.80;;
17614;SDS011;8926;49.720;6.576;2023-09-08T12:54:37;4.43;;;4.10;;
17614;SDS011;8926;49.720;6.576;2023-09-08T12:57:02;6.90;;;3.63;;
17614;SDS011;8926;49.720;6.576;2023-09-08T12:59:28;3.20;;;3.00;;
17614;SDS011;8926;49.720;6.576;2023-09-08T13:01:53;3.90;;;3.60;;
17614;SDS011;8926;49.720;6.576;2023-09-08T13:04:18;3.60;;;3.40;;
17614;SDS011;8926;49.720;6.576;2023-09-08T13:06:44;3.20;;;3.00;;
17614;SDS011;8926;49.720;6.576;2023-09-08T13:09:10;2.57;;;2.40;;
17614;SDS011;8926;49.720;6.576;2023-09-08T13:11:35;3.03;;;2.83;;
17614;SDS011;8926;49.720;6.576;2023-09-08T13:14:01;2.23;;;2.13;;
17614;SDS011;8926;49.720;6.576;2023-09-08T13:16:26;4.43;;;4.10;;
17614;SDS011;8926;49.720;6.576;2023-09-08T13:18:51;3.70;;;3.43;;
17614;SDS011;8926;49.720;6.576;2023-09-08T13:21:17;3.00;;;2.80;;
17614;SDS011;8926;49.720;6.576;2023-09-08T13:23:42;3.67;;;3.17;;
17614;SDS011;8926;49.720;6.576;2023-09-08T13:26:07;3.00;;;2.80;;
17614;SDS011;8926;49.720;6.576;2023-09-08T13:28:33;4.03;;;3.67;;
17614;SDS011;8926;49.720;6.576;2023-09-08T13:30:58;2.80;;;2.60;;
17614;SDS011;8926;49.720;6.576;2023-09-08T13:33:23;3.13;;;2.93;;
17614;SDS011;8926;49.720;6.576;2023-09-08T13:35:49;3.07;;;2.87;;
17614;SDS011;8926;49.720;6.576;2023-09-08T13:38:14;2.50;;;2.30;;
17614;SDS011;8926;49.720;6.576;2023-09-08T13:40:39;3.70;;;3.50;;
17614;SDS011;8926;49.720;6.576;2023-09-08T13:43:06;3.77;;;3.47;;
17614;SDS011;8926;49.720;6.576;2023-09-08T13:45:31;3.60;;;3.20;;
17614;SDS011;8926;49.720;6.576;2023-09-08T13:47:57;2.57;;;2.40;;
17614;SDS011;8926;49.720;6.576;2023-09-08T13:50:22;2.43;;;2.33;;
17614;SDS011;8926;49.720;6.576;2023-09-08T13:52:48;3.10;;;2.90;;
17614;SDS011;8926;49.720;6.576;2023-09-08T13:55:14;2.57;;;2.37;;
17614;SDS011;8926;49.720;6.576;2023-09-08T13:57:39;3.17;;;2.97;;
17614;SDS011;8926;49.720;6.576;2023-09-08T14:00:05;2.70;;;2.60;;
17614;SDS011;8926;49.720;6.576;2023-09-08T14:02:30;2.40;;;2.30;;
17614;SDS011;8926;49.720;6.576;2023-09-08T14:04:56;3.50;;;3.10;;
17614;SDS011;8926;49.720;6.576;2023-09-08T14:07:21;2.20;;;2.10;;
17614;SDS011;8926;49.720;6.576;2023-09-08T14:09:46;2.97;;;2.77;;
17614;SDS011;8926;49.720;6.576;2023-09-08T14:12:12;2.60;;;2.50;;
17614;SDS011;8926;49.720;6.576;2023-09-08T14:14:37;2.20;;;2.10;;
17614;SDS011;8926;49.720;6.576;2023-09-08T14:17:02;1.73;;;1.63;;
17614;SDS011;8926;49.720;6.576;2023-09-08T14:19:28;2.50;;;2.40;;
17614;SDS011;8926;49.720;6.576;2023-09-08T14:21:53;2.10;;;2.00;;
17614;SDS011;8926;49.720;6.576;2023-09-08T14:24:18;2.40;;;2.30;;
17614;SDS011;8926;49.720;6.576;2023-09-08T14:26:44;2.47;;;2.27;;
17614;SDS011;8926;49.720;6.576;2023-09-08T14:29:09;1.80;;;1.70;;
17614;SDS011;8926;49.720;6.576;2023-09-08T14:31:34;1.60;;;1.60;;
17614;SDS011;8926;49.720;6.576;2023-09-08T14:34:00;1.60;;;1.50;;
17614;SDS011;8926;49.720;6.576;2023-09-08T14:36:25;1.80;;;1.70;;
17614;SDS011;8926;49.720;6.576;2023-09-08T14:38:50;2.07;;;1.97;;
17614;SDS011;8926;49.720;6.576;2023-09-08T14:41:16;1.80;;;1.70;;
17614;SDS011;8926;49.720;6.576;2023-09-08T14:43:41;1.40;;;1.40;;
17614;SDS011;8926;49.720;6.576;2023-09-08T14:46:07;2.10;;;2.00;;
17614;SDS011;8926;49.720;6.576;2023-09-08T14:48:32;2.37;;;2.17;;
17614;SDS011;8926;49.720;6.576;2023-09-08T14:50:57;2.20;;;1.80;;
17614;SDS011;8926;49.720;6.576;2023-09-08T14:53:23;1.43;;;1.33;;
17614;SDS011;8926;49.720;6.576;2023-09-08T14:55:49;0.93;;;0.93;;
17614;SDS011;8926;49.720;6.576;2023-09-08T14:58:15;0.90;;;0.90;;
17614;SDS011;8926;49.720;6.576;2023-09-08T15:00:41;1.30;;;1.30;;
17614;SDS011;8926;49.720;6.576;2023-09-08T15:03:06;1.13;;;1.10;;
17614;SDS011;8926;49.720;6.576;2023-09-08T15:05:33;1.13;;;0.97;;
17614;SDS011;8926;49.720;6.576;2023-09-08T15:07:59;1.20;;;1.10;;